createdAt,value
2024-04-17T00:09:23.567Z,3.70
2024-04-17T00:19:26.276Z,3.55
2024-04-17T00:29:28.886Z,3.64
2024-04-17T00:39:31.517Z,3.67
2024-04-17T00:49:34.342Z,3.64
2024-04-17T00:59:37.107Z,3.80
2024-04-17T01:09:39.693Z,3.53
2024-04-17T01:19:42.461Z,3.40
2024-04-17T01:29:45.144Z,3.33
2024-04-17T01:39:47.780Z,3.19
2024-04-17T01:49:50.589Z,3.31
2024-04-17T01:59:53.307Z,3.13
2024-04-17T02:09:56.748Z,3.08
2024-04-17T02:19:59.571Z,3.10
2024-04-17T02:30:02.246Z,3.26
2024-04-17T02:40:05.537Z,3.33
2024-04-17T02:50:08.831Z,3.50
2024-04-17T03:00:12.435Z,3.33
2024-04-17T03:10:15.190Z,3.29
2024-04-17T03:20:18.094Z,3.32
2024-04-17T03:30:22.015Z,3.36
2024-04-17T03:40:24.732Z,3.32
2024-04-17T03:50:27.324Z,3.39
2024-04-17T04:00:30.001Z,3.45
2024-04-17T04:10:32.701Z,3.49
2024-04-17T04:20:35.404Z,3.75
2024-04-17T04:30:41.291Z,3.75
2024-04-17T04:40:43.973Z,4.26
2024-04-17T04:50:46.528Z,4.05
2024-04-17T05:00:49.108Z,3.74
2024-04-17T05:10:51.931Z,3.71
2024-04-17T05:20:54.564Z,3.97
2024-04-17T05:31:01.070Z,4.17
2024-04-17T05:41:03.848Z,4.79
2024-04-17T05:51:06.572Z,4.44
2024-04-17T06:01:09.212Z,4.69
2024-04-17T06:11:12.181Z,6.36
2024-04-17T06:21:14.824Z,6.78
2024-04-17T06:31:17.734Z,6.75
2024-04-17T06:41:20.520Z,6.91
2024-04-17T06:51:23.323Z,7.45
2024-04-17T07:01:26.237Z,7.85
2024-04-17T07:11:29.293Z,8.67
2024-04-17T07:21:32.079Z,9.06
2024-04-17T07:31:34.777Z,9.64
2024-04-17T07:41:37.542Z,10.77
2024-04-17T07:51:40.255Z,10.26
2024-04-17T08:01:42.882Z,10.91
2024-04-17T08:11:45.641Z,12.61
2024-04-17T08:21:48.297Z,11.20
2024-04-17T08:31:51.025Z,12.75
2024-04-17T08:41:56.940Z,12.00
2024-04-17T08:52:04.046Z,11.57
2024-04-17T09:02:15.213Z,11.28
2024-04-17T09:12:18.652Z,12.01
2024-04-17T09:22:21.337Z,13.39
2024-04-17T09:32:24.345Z,12.68
2024-04-17T09:42:27.295Z,14.18
2024-04-17T09:52:30.959Z,13.28
2024-04-17T10:02:34.443Z,13.76
2024-04-17T10:12:37.619Z,14.44
2024-04-17T10:22:40.399Z,12.96
2024-04-17T10:32:43.219Z,14.03
2024-04-17T10:42:46.093Z,14.00
2024-04-17T10:52:49.309Z,14.80
2024-04-17T11:02:54.067Z,16.16
2024-04-17T11:12:56.820Z,13.68
2024-04-17T11:23:07.407Z,14.15
2024-04-17T11:33:12.097Z,15.31
2024-04-17T11:43:17.132Z,14.37
2024-04-17T11:53:20.731Z,13.24
2024-04-17T12:03:23.699Z,13.96
2024-04-17T12:13:26.536Z,16.07
2024-04-17T12:23:29.209Z,15.12
2024-04-17T12:33:32.115Z,13.93
2024-04-17T12:43:38.268Z,11.76
2024-04-17T12:53:41.074Z,10.82
2024-04-17T13:03:44.025Z,11.31
2024-04-17T13:13:46.860Z,13.40
2024-04-17T13:23:49.656Z,15.23
2024-04-17T13:33:52.362Z,16.61
2024-04-17T13:43:55.147Z,14.82
2024-04-17T13:53:57.761Z,14.08
2024-04-17T14:04:00.674Z,12.38
2024-04-17T14:14:03.364Z,11.89
2024-04-17T14:24:06.252Z,12.34
2024-04-17T14:34:08.968Z,14.54
2024-04-17T14:44:11.714Z,17.44
2024-04-17T14:54:14.452Z,17.37
2024-04-17T15:04:17.221Z,17.91
2024-04-17T15:14:21.126Z,17.82
2024-04-17T15:24:23.839Z,17.48
2024-04-17T15:34:26.680Z,13.74
2024-04-17T15:44:29.294Z,15.47
2024-04-17T15:54:31.940Z,13.79
2024-04-17T16:04:34.660Z,11.13
2024-04-17T16:14:37.318Z,10.56
2024-04-17T16:24:41.312Z,10.37
2024-04-17T16:34:44.001Z,10.61
2024-04-17T16:44:48.141Z,10.57
2024-04-17T16:54:50.789Z,10.39
2024-04-17T17:04:54.952Z,9.90
2024-04-17T17:14:57.660Z,9.20
2024-04-17T17:25:01.421Z,8.67
2024-04-17T17:35:05.614Z,8.57
2024-04-17T17:45:09.765Z,8.37
2024-04-17T17:55:17.794Z,8.04
2024-04-17T18:05:20.493Z,7.63
2024-04-17T18:15:23.423Z,7.21
2024-04-17T18:25:26.454Z,7.22
2024-04-17T18:35:29.410Z,7.35
2024-04-17T18:45:32.973Z,7.47
2024-04-17T18:55:35.656Z,7.60
2024-04-17T19:05:38.318Z,7.50
2024-04-17T19:15:41.857Z,7.42
2024-04-17T19:25:53.648Z,7.34
2024-04-17T19:35:57.804Z,7.22
2024-04-17T19:46:01.540Z,7.09
2024-04-17T19:56:04.956Z,7.04
2024-04-17T20:06:09.086Z,6.83
2024-04-17T20:16:12.035Z,6.83
2024-04-17T20:26:15.491Z,6.84
2024-04-17T20:36:19.446Z,6.81
2024-04-17T20:46:22.470Z,6.80
2024-04-17T20:56:25.287Z,6.72
2024-04-17T21:06:29.021Z,6.70
2024-04-17T21:16:32.331Z,6.58
2024-04-17T21:26:34.980Z,6.48
2024-04-17T21:36:37.725Z,6.09
2024-04-17T21:46:40.365Z,6.00
2024-04-17T21:56:46.036Z,5.99
2024-04-17T22:06:49.511Z,5.97
2024-04-17T22:16:52.140Z,5.99
2024-04-17T22:26:57.839Z,6.11
2024-04-17T22:37:00.437Z,6.16
2024-04-17T22:47:03.064Z,6.14
2024-04-17T22:57:05.664Z,6.26
2024-04-17T23:07:09.515Z,6.15
2024-04-17T23:17:12.198Z,6.02
2024-04-17T23:27:14.852Z,5.97
2024-04-17T23:37:17.497Z,5.93
2024-04-17T23:47:20.230Z,5.94
2024-04-17T23:57:22.905Z,5.80
